createdAt,value
2023-01-29T00:01:23.876Z,21.26
2023-01-29T00:03:51.991Z,23.01
2023-01-29T00:06:19.367Z,25.02
2023-01-29T00:08:47.071Z,23.07
2023-01-29T00:11:14.147Z,21.28
2023-01-29T00:13:40.858Z,20.43
2023-01-29T00:16:07.732Z,20.52
2023-01-29T00:18:39.015Z,20.94
2023-01-29T00:21:13.565Z,20.92
2023-01-29T00:23:40.549Z,22.56
2023-01-29T00:26:07.541Z,22.86
2023-01-29T00:28:35.122Z,25.50
2023-01-29T00:31:14.393Z,27.52
2023-01-29T00:33:41.315Z,23.59
2023-01-29T00:36:11.092Z,23.24
2023-01-29T00:38:39.106Z,22.67
2023-01-29T00:41:26.067Z,21.42
2023-01-29T00:44:11.871Z,22.18
2023-01-29T00:46:38.999Z,21.72
2023-01-29T00:49:06.748Z,21.35
2023-01-29T00:51:34.002Z,22.06
2023-01-29T00:54:01.222Z,21.88
2023-01-29T00:56:29.557Z,22.07
2023-01-29T00:58:56.849Z,22.28
2023-01-29T01:01:43.380Z,22.71
2023-01-29T01:04:12.307Z,23.44
2023-01-29T01:06:40.501Z,23.10
2023-01-29T01:09:28.598Z,26.00
2023-01-29T01:11:55.984Z,23.53
2023-01-29T01:14:22.784Z,24.02
2023-01-29T01:16:50.010Z,21.95
2023-01-29T01:19:17.256Z,22.25
2023-01-29T01:21:47.092Z,23.16
2023-01-29T01:24:14.893Z,24.61
2023-01-29T01:26:42.033Z,23.39
2023-01-29T01:29:09.474Z,23.68
2023-01-29T01:31:36.269Z,25.74
2023-01-29T01:34:03.044Z,22.89
2023-01-29T01:36:32.378Z,23.29
2023-01-29T01:38:59.262Z,25.52
2023-01-29T01:41:26.280Z,21.76
2023-01-29T01:44:01.811Z,22.01
2023-01-29T01:46:30.005Z,21.34
2023-01-29T01:49:13.591Z,22.15
2023-01-29T01:51:46.139Z,21.43
2023-01-29T01:54:22.460Z,21.01
2023-01-29T01:56:55.844Z,22.25
2023-01-29T01:59:23.963Z,23.33
2023-01-29T02:01:54.401Z,23.04
2023-01-29T02:04:43.122Z,21.02
2023-01-29T02:07:31.923Z,22.94
2023-01-29T02:10:12.412Z,23.54
2023-01-29T02:12:39.422Z,23.20
2023-01-29T02:15:07.376Z,22.59
2023-01-29T02:17:34.391Z,24.37
2023-01-29T02:20:17.637Z,22.56
2023-01-29T02:23:03.847Z,25.11
2023-01-29T02:25:49.066Z,23.48
2023-01-29T02:28:34.619Z,21.18
2023-01-29T02:31:26.262Z,22.51
2023-01-29T02:34:17.816Z,22.75
2023-01-29T02:36:52.586Z,21.57
2023-01-29T02:39:34.450Z,23.16
2023-01-29T02:42:07.626Z,24.25
2023-01-29T02:44:39.691Z,23.35
2023-01-29T02:47:18.450Z,24.16
2023-01-29T02:49:56.722Z,23.33
2023-01-29T02:52:43.280Z,23.14
2023-01-29T02:55:15.971Z,21.83
2023-01-29T02:57:47.746Z,21.98
2023-01-29T03:00:22.815Z,23.02
2023-01-29T03:03:00.745Z,23.10
2023-01-29T03:06:02.276Z,26.71
2023-01-29T03:08:42.860Z,26.18
2023-01-29T03:11:15.822Z,26.69
2023-01-29T03:13:58.319Z,26.75
2023-01-29T03:16:53.026Z,23.72
2023-01-29T03:19:32.022Z,23.65
2023-01-29T03:22:04.835Z,23.88
2023-01-29T03:24:56.116Z,23.93
2023-01-29T03:27:49.398Z,25.91
2023-01-29T03:30:37.190Z,22.91
2023-01-29T03:33:26.959Z,25.13
2023-01-29T03:36:00.967Z,26.00
2023-01-29T03:38:30.023Z,23.64
2023-01-29T03:41:02.576Z,24.42
2023-01-29T03:43:38.165Z,23.93
2023-01-29T03:46:31.488Z,25.71
2023-01-29T03:49:11.990Z,24.25
2023-01-29T03:52:01.239Z,24.67
2023-01-29T03:54:52.866Z,24.30
2023-01-29T03:57:36.747Z,21.96
2023-01-29T04:00:38.483Z,21.92
2023-01-29T04:03:25.226Z,21.47
2023-01-29T04:06:09.931Z,20.35
2023-01-29T04:08:56.246Z,23.15
2023-01-29T04:11:24.828Z,20.80
2023-01-29T04:13:52.480Z,20.66
2023-01-29T04:16:31.574Z,19.90
2023-01-29T04:19:17.290Z,20.12
2023-01-29T04:21:46.658Z,22.54
2023-01-29T04:24:14.594Z,21.28
2023-01-29T04:27:00.304Z,20.75
2023-01-29T04:29:43.750Z,21.05
2023-01-29T04:32:20.848Z,22.42
2023-01-29T04:35:15.582Z,21.04
2023-01-29T04:38:21.711Z,20.68
2023-01-29T04:41:03.302Z,20.93
2023-01-29T04:43:43.910Z,20.25
2023-01-29T04:46:13.948Z,20.77
2023-01-29T04:49:17.616Z,20.88
2023-01-29T04:51:54.821Z,21.96
2023-01-29T04:54:52.300Z,21.36
2023-01-29T04:57:34.098Z,21.88
2023-01-29T05:00:24.062Z,21.26
2023-01-29T05:02:51.394Z,22.81
2023-01-29T05:05:20.220Z,21.87
2023-01-29T05:07:48.735Z,21.87
2023-01-29T05:10:19.683Z,21.07
2023-01-29T05:12:53.162Z,21.43
2023-01-29T05:15:25.649Z,21.59
2023-01-29T05:17:54.575Z,21.03
2023-01-29T05:20:21.516Z,21.44
2023-01-29T05:22:49.271Z,20.94
2023-01-29T05:25:21.170Z,21.34
2023-01-29T05:28:11.960Z,22.62
2023-01-29T05:30:40.044Z,21.63
2023-01-29T05:33:21.920Z,22.24
2023-01-29T05:35:49.477Z,23.25
2023-01-29T05:38:17.451Z,22.43
2023-01-29T05:40:44.466Z,21.57
2023-01-29T05:43:22.653Z,21.33
2023-01-29T05:46:00.400Z,21.53
2023-01-29T05:48:29.139Z,20.91
2023-01-29T05:51:03.365Z,22.54
2023-01-29T05:53:31.230Z,22.04
2023-01-29T05:56:01.812Z,22.41
2023-01-29T05:58:31.359Z,21.99
2023-01-29T06:00:58.571Z,23.04
2023-01-29T06:03:25.307Z,25.81
2023-01-29T06:05:52.044Z,24.65
2023-01-29T06:08:18.797Z,22.72
2023-01-29T06:10:45.478Z,21.77
2023-01-29T06:13:12.429Z,22.84
2023-01-29T06:15:40.824Z,23.60
2023-01-29T06:18:07.564Z,23.27
2023-01-29T06:20:34.297Z,20.29
2023-01-29T06:23:01.444Z,20.32
2023-01-29T06:25:28.770Z,20.21
2023-01-29T06:27:57.125Z,20.93
2023-01-29T06:30:25.908Z,22.84
2023-01-29T06:32:59.006Z,21.59
2023-01-29T06:35:26.152Z,23.42
2023-01-29T06:37:53.021Z,23.21
2023-01-29T06:40:19.851Z,22.08
2023-01-29T06:42:46.846Z,22.86
2023-01-29T06:45:14.249Z,22.09
2023-01-29T06:47:41.068Z,21.62
2023-01-29T06:50:08.166Z,21.35
2023-01-29T06:52:34.851Z,21.21
2023-01-29T06:55:01.916Z,20.85
2023-01-29T06:57:30.185Z,22.51
2023-01-29T06:59:56.950Z,21.94
2023-01-29T07:02:23.840Z,21.32
2023-01-29T07:04:50.680Z,21.80
2023-01-29T07:07:18.551Z,21.90
2023-01-29T07:09:45.288Z,21.60
2023-01-29T07:12:12.080Z,22.84
2023-01-29T07:14:38.746Z,21.96
2023-01-29T07:17:05.591Z,22.69
2023-01-29T07:19:32.327Z,22.23
2023-01-29T07:22:02.460Z,22.13
2023-01-29T07:24:29.644Z,22.91
2023-01-29T07:26:56.944Z,22.27
2023-01-29T07:29:23.771Z,22.26
2023-01-29T07:31:50.650Z,24.28
2023-01-29T07:34:17.467Z,22.86
2023-01-29T07:36:44.608Z,23.64
2023-01-29T07:39:11.329Z,23.44
2023-01-29T07:41:38.103Z,25.25
2023-01-29T07:44:15.185Z,23.55
2023-01-29T07:46:41.906Z,26.83
2023-01-29T07:49:08.683Z,23.98
2023-01-29T07:51:35.434Z,21.82
2023-01-29T07:54:02.475Z,21.98
2023-01-29T07:56:29.512Z,22.30
2023-01-29T07:58:56.522Z,22.34
2023-01-29T08:01:23.386Z,24.44
2023-01-29T08:03:51.390Z,26.45
2023-01-29T08:06:19.341Z,23.80
2023-01-29T08:08:46.092Z,24.25
2023-01-29T08:11:12.900Z,25.32
2023-01-29T08:13:39.770Z,24.00
2023-01-29T08:16:06.976Z,23.36
2023-01-29T08:18:34.093Z,23.24
2023-01-29T08:21:01.554Z,23.53
2023-01-29T08:23:28.517Z,21.68
2023-01-29T08:25:55.479Z,19.95
2023-01-29T08:28:22.331Z,16.30
2023-01-29T08:30:49.127Z,16.65
2023-01-29T08:33:17.547Z,15.96
2023-01-29T08:35:52.008Z,16.91
2023-01-29T08:38:19.223Z,15.88
2023-01-29T08:40:46.082Z,19.61
2023-01-29T08:43:13.973Z,17.15
2023-01-29T08:45:42.787Z,16.51
2023-01-29T08:48:10.287Z,15.25
2023-01-29T08:50:37.768Z,16.27
2023-01-29T08:53:08.250Z,15.06
2023-01-29T08:55:41.900Z,14.06
2023-01-29T08:58:10.846Z,16.12
2023-01-29T09:00:38.545Z,18.29
2023-01-29T09:03:07.733Z,18.21
2023-01-29T09:05:35.308Z,16.93
2023-01-29T09:08:03.068Z,14.18
2023-01-29T09:10:30.276Z,13.70
2023-01-29T09:12:56.955Z,14.05
2023-01-29T09:15:24.178Z,14.46
2023-01-29T09:17:51.310Z,13.51
2023-01-29T09:20:19.517Z,12.84
2023-01-29T09:22:47.200Z,13.84
2023-01-29T09:25:14.662Z,13.41
2023-01-29T09:27:42.044Z,12.89
2023-01-29T09:30:09.665Z,12.76
2023-01-29T09:32:53.908Z,13.18
2023-01-29T09:35:24.729Z,14.44
2023-01-29T09:37:52.066Z,18.37
2023-01-29T09:40:29.383Z,21.70
2023-01-29T09:43:04.638Z,22.33
2023-01-29T09:45:31.690Z,22.29
2023-01-29T09:48:05.805Z,22.71
2023-01-29T09:50:41.865Z,21.75
2023-01-29T09:53:20.036Z,21.65
2023-01-29T09:55:53.005Z,21.23
2023-01-29T09:58:31.514Z,21.88
2023-01-29T10:01:17.025Z,21.55
2023-01-29T10:03:59.070Z,22.03
2023-01-29T10:06:50.527Z,23.30
2023-01-29T10:09:31.583Z,23.53
2023-01-29T10:12:07.589Z,24.24
2023-01-29T10:15:03.896Z,20.76
2023-01-29T10:17:36.722Z,23.69
2023-01-29T10:20:18.880Z,23.57
2023-01-29T10:22:51.424Z,22.14
2023-01-29T10:25:21.536Z,23.09
2023-01-29T10:27:53.286Z,22.51
2023-01-29T10:30:29.903Z,22.32
2023-01-29T10:33:01.586Z,20.96
2023-01-29T10:35:35.655Z,21.47
2023-01-29T10:38:27.870Z,22.42
2023-01-29T10:41:02.598Z,25.90
2023-01-29T10:43:47.219Z,22.71
2023-01-29T10:46:36.175Z,23.38
2023-01-29T10:49:48.484Z,22.92
2023-01-29T10:52:40.647Z,23.08
2023-01-29T10:55:19.552Z,21.61
2023-01-29T10:58:07.742Z,22.83
2023-01-29T11:00:39.521Z,22.52
2023-01-29T11:03:33.650Z,24.32
2023-01-29T11:06:03.527Z,23.26
2023-01-29T11:08:40.110Z,24.26
2023-01-29T11:11:12.966Z,21.84
2023-01-29T11:13:54.909Z,21.25
2023-01-29T11:16:21.616Z,20.43
2023-01-29T11:18:49.910Z,21.56
2023-01-29T11:21:16.957Z,21.16
2023-01-29T11:23:43.812Z,21.91
2023-01-29T11:26:19.455Z,21.34
2023-01-29T11:28:48.751Z,23.13
2023-01-29T11:31:27.477Z,21.96
2023-01-29T11:34:04.119Z,21.56
2023-01-29T11:36:39.246Z,21.92
2023-01-29T11:39:08.916Z,20.36
2023-01-29T11:41:54.251Z,21.54
2023-01-29T11:44:33.079Z,21.78
2023-01-29T11:47:18.747Z,20.72
2023-01-29T11:49:51.039Z,21.50
2023-01-29T11:52:21.258Z,22.13
2023-01-29T11:55:03.721Z,21.63
2023-01-29T11:57:36.110Z,22.58
2023-01-29T12:00:07.407Z,23.74
2023-01-29T12:02:42.314Z,23.20
2023-01-29T12:05:21.166Z,22.76
2023-01-29T12:07:51.530Z,20.99
2023-01-29T12:10:42.483Z,20.71
2023-01-29T12:13:20.140Z,23.41
2023-01-29T12:15:48.532Z,22.72
2023-01-29T12:18:38.031Z,21.39
2023-01-29T12:21:34.293Z,21.81
2023-01-29T12:24:16.312Z,20.92
2023-01-29T12:27:01.120Z,21.64
2023-01-29T12:29:41.123Z,21.82
2023-01-29T12:32:36.070Z,22.78
2023-01-29T12:35:28.530Z,27.22
2023-01-29T12:38:08.158Z,23.93
2023-01-29T12:40:42.284Z,22.97
2023-01-29T12:43:17.187Z,22.42
2023-01-29T12:45:48.150Z,22.52
2023-01-29T12:48:23.515Z,23.02
2023-01-29T12:50:53.375Z,23.74
2023-01-29T12:53:32.673Z,21.54
2023-01-29T12:56:25.520Z,23.98
2023-01-29T12:58:55.970Z,23.69
2023-01-29T13:01:36.823Z,22.73
2023-01-29T13:04:32.623Z,23.87
2023-01-29T13:07:12.892Z,22.60
2023-01-29T13:09:45.289Z,21.14
2023-01-29T13:12:18.132Z,24.04
2023-01-29T13:15:03.748Z,24.88
2023-01-29T13:17:43.025Z,22.80
2023-01-29T13:20:18.956Z,22.58
2023-01-29T13:22:48.055Z,21.99
2023-01-29T13:25:17.752Z,23.28
2023-01-29T13:27:47.749Z,23.65
2023-01-29T13:30:31.881Z,22.03
2023-01-29T13:33:11.126Z,21.01
2023-01-29T13:35:45.188Z,20.72
2023-01-29T13:38:28.594Z,24.34
2023-01-29T13:41:05.152Z,22.30
2023-01-29T13:43:41.610Z,21.21
2023-01-29T13:46:13.397Z,20.57
2023-01-29T13:48:47.151Z,20.31
2023-01-29T13:51:20.207Z,20.39
2023-01-29T13:53:58.582Z,21.00
2023-01-29T13:56:44.694Z,19.66
2023-01-29T13:59:59.511Z,22.76
2023-01-29T14:02:28.638Z,19.99
2023-01-29T14:05:32.383Z,19.43
2023-01-29T14:08:09.379Z,22.10
2023-01-29T14:10:37.693Z,20.50
2023-01-29T14:13:04.358Z,20.04
2023-01-29T14:15:36.356Z,20.58
2023-01-29T14:18:06.228Z,19.82
2023-01-29T14:20:45.489Z,20.30
2023-01-29T14:23:47.381Z,20.38
2023-01-29T14:26:20.374Z,21.02
2023-01-29T14:28:59.119Z,21.57
2023-01-29T14:31:49.994Z,20.11
2023-01-29T14:34:23.127Z,20.60
2023-01-29T14:36:55.676Z,20.41
2023-01-29T14:39:30.052Z,20.80
2023-01-29T14:41:57.986Z,20.77
2023-01-29T14:44:55.740Z,20.69
2023-01-29T14:47:28.591Z,20.71
2023-01-29T14:49:58.544Z,20.97
2023-01-29T14:52:36.830Z,20.47
2023-01-29T14:55:08.078Z,21.42
2023-01-29T14:57:36.870Z,21.68
2023-01-29T15:00:07.692Z,20.13
2023-01-29T15:02:45.535Z,20.37
2023-01-29T15:05:19.565Z,20.49
2023-01-29T15:07:57.188Z,20.37
2023-01-29T15:10:29.194Z,20.98
2023-01-29T15:13:09.404Z,24.96
2023-01-29T15:15:57.360Z,20.81
2023-01-29T15:18:35.152Z,21.08
2023-01-29T15:21:05.804Z,20.93
2023-01-29T15:23:34.370Z,20.63
2023-01-29T15:26:05.095Z,21.38
2023-01-29T15:28:34.249Z,20.83
2023-01-29T15:31:09.971Z,20.89
2023-01-29T15:33:40.338Z,21.36
2023-01-29T15:36:08.803Z,21.70
2023-01-29T15:38:36.353Z,22.08
2023-01-29T15:41:19.308Z,21.63
2023-01-29T15:43:57.942Z,22.42
2023-01-29T15:46:28.413Z,22.71
2023-01-29T15:48:59.638Z,21.21
2023-01-29T15:51:28.048Z,21.25
2023-01-29T15:54:07.423Z,20.94
2023-01-29T15:56:44.598Z,21.17
2023-01-29T15:59:34.707Z,21.50
2023-01-29T16:02:26.634Z,21.43
2023-01-29T16:04:54.055Z,22.37
2023-01-29T16:07:21.067Z,21.09
2023-01-29T16:09:48.850Z,20.78
2023-01-29T16:12:15.958Z,21.41
2023-01-29T16:14:43.648Z,21.59
2023-01-29T16:17:22.638Z,20.86
2023-01-29T16:19:59.717Z,21.71
2023-01-29T16:22:31.383Z,20.61
2023-01-29T16:25:02.966Z,21.70
2023-01-29T16:27:31.987Z,22.46
2023-01-29T16:29:58.991Z,21.81
2023-01-29T16:32:25.776Z,21.35
2023-01-29T16:34:58.313Z,21.84
2023-01-29T16:37:30.022Z,21.76
2023-01-29T16:39:57.825Z,23.38
2023-01-29T16:42:28.466Z,22.14
2023-01-29T16:44:58.393Z,21.78
2023-01-29T16:47:39.254Z,21.72
2023-01-29T16:50:40.663Z,22.35
2023-01-29T16:53:23.314Z,22.08
2023-01-29T16:55:52.961Z,23.35
2023-01-29T16:58:23.078Z,21.69
2023-01-29T17:00:54.424Z,22.50
2023-01-29T17:03:21.741Z,22.37
2023-01-29T17:05:50.965Z,21.80
2023-01-29T17:08:38.322Z,22.16
2023-01-29T17:11:07.256Z,22.63
2023-01-29T17:13:43.817Z,22.65
2023-01-29T17:16:29.368Z,22.00
2023-01-29T17:19:35.758Z,23.29
2023-01-29T17:22:12.357Z,22.52
2023-01-29T17:24:43.883Z,23.20
2023-01-29T17:27:28.243Z,24.61
2023-01-29T17:29:55.366Z,22.83
2023-01-29T17:32:22.606Z,22.79
2023-01-29T17:34:51.029Z,22.46
2023-01-29T17:37:30.201Z,21.66
2023-01-29T17:40:18.364Z,22.20
2023-01-29T17:42:45.356Z,21.81
2023-01-29T17:45:13.117Z,22.38
2023-01-29T17:47:40.249Z,22.98
2023-01-29T17:50:21.397Z,22.37
2023-01-29T17:52:54.300Z,22.93
2023-01-29T17:55:21.230Z,22.36
2023-01-29T17:57:48.170Z,22.22
2023-01-29T18:00:27.467Z,22.83
2023-01-29T18:02:55.816Z,22.56
2023-01-29T18:05:42.671Z,21.43
2023-01-29T18:13:15.212Z,25.12
2023-01-29T18:21:52.629Z,21.83
2023-01-29T18:23:17.242Z,22.91
2023-01-29T18:25:45.301Z,22.49
2023-01-29T18:28:20.191Z,21.19
2023-01-29T18:30:47.937Z,21.66
2023-01-29T18:33:16.685Z,23.21
2023-01-29T18:35:47.848Z,21.75
2023-01-29T18:38:15.510Z,22.14
2023-01-29T18:40:44.589Z,22.19
2023-01-29T18:43:12.001Z,21.11
2023-01-29T18:45:39.331Z,22.32
2023-01-29T18:48:06.853Z,22.04
2023-01-29T18:50:34.541Z,21.97
2023-01-29T18:53:01.825Z,22.02
2023-01-29T18:55:29.008Z,22.00
2023-01-29T18:58:27.173Z,21.75
2023-01-29T19:00:45.291Z,22.34
2023-01-29T19:03:12.062Z,22.80
2023-01-29T19:05:39.132Z,22.68
2023-01-29T19:08:07.020Z,22.44
2023-01-29T19:10:34.537Z,23.30
2023-01-29T19:13:02.193Z,22.31
2023-01-29T19:15:29.987Z,22.00
2023-01-29T19:17:57.440Z,22.74
2023-01-29T19:20:25.311Z,24.34
2023-01-29T19:22:52.640Z,22.46
2023-01-29T19:25:20.051Z,22.36
2023-01-29T19:27:48.504Z,21.91
2023-01-29T19:30:17.521Z,22.47
2023-01-29T19:32:44.628Z,22.38
2023-01-29T19:35:12.003Z,21.72
2023-01-29T19:37:39.229Z,21.21
2023-01-29T19:40:08.346Z,21.86
2023-01-29T19:42:37.878Z,21.56
2023-01-29T19:45:06.164Z,23.49
2023-01-29T19:47:43.345Z,24.01
2023-01-29T19:50:12.633Z,23.20
2023-01-29T19:52:51.245Z,22.61
2023-01-29T19:55:21.415Z,23.40
2023-01-29T19:57:50.235Z,23.62
2023-01-29T20:00:18.995Z,21.78
2023-01-29T20:02:46.793Z,22.81
2023-01-29T20:05:18.500Z,25.36
2023-01-29T20:07:46.703Z,21.49
2023-01-29T20:10:17.663Z,23.56
2023-01-29T20:12:48.092Z,24.42
2023-01-29T20:15:16.423Z,21.98
2023-01-29T20:17:45.927Z,21.67
2023-01-29T20:20:14.114Z,21.83
2023-01-29T20:22:42.758Z,22.26
2023-01-29T20:25:13.681Z,22.74
2023-01-29T20:27:41.582Z,22.23
2023-01-29T20:30:10.181Z,21.79
2023-01-29T20:32:38.210Z,22.31
2023-01-29T20:35:05.850Z,22.05
2023-01-29T20:37:33.513Z,22.21
2023-01-29T20:40:00.644Z,21.91
2023-01-29T20:42:28.210Z,21.26
2023-01-29T20:44:55.786Z,22.91
2023-01-29T20:47:24.246Z,22.09
2023-01-29T20:49:51.897Z,22.35
2023-01-29T20:52:19.583Z,21.28
2023-01-29T20:54:46.727Z,21.44
2023-01-29T20:57:14.146Z,23.80
2023-01-29T20:59:41.389Z,22.50
2023-01-29T21:02:12.188Z,23.21
2023-01-29T21:04:39.999Z,21.83
2023-01-29T21:07:08.009Z,22.71
2023-01-29T21:09:35.286Z,22.26
2023-01-29T21:12:05.450Z,22.62
2023-01-29T21:14:32.905Z,22.03
2023-01-29T21:17:00.982Z,21.68
2023-01-29T21:19:29.224Z,21.25
2023-01-29T21:21:58.078Z,22.71
2023-01-29T21:24:25.413Z,22.29
2023-01-29T21:26:56.655Z,20.75
2023-01-29T21:29:23.842Z,21.02
2023-01-29T21:31:50.968Z,21.12
2023-01-29T21:34:17.860Z,20.91
2023-01-29T21:36:46.821Z,20.60
2023-01-29T21:39:26.698Z,20.60
2023-01-29T21:42:12.530Z,20.61
2023-01-29T21:44:39.468Z,20.51
2023-01-29T21:50:16.632Z,21.31
2023-01-29T21:52:43.700Z,20.46
2023-01-29T21:55:17.467Z,20.72
2023-01-29T22:01:53.407Z,22.11
2023-01-29T22:04:23.295Z,21.80
2023-01-29T22:07:12.195Z,21.79
2023-01-29T22:09:54.177Z,22.20
2023-01-29T22:12:24.716Z,22.54
2023-01-29T22:14:52.022Z,22.12
2023-01-29T22:17:49.969Z,21.52
2023-01-29T22:20:44.819Z,23.32
2023-01-29T22:23:12.804Z,21.99
2023-01-29T22:25:39.621Z,22.41
2023-01-29T22:28:07.508Z,22.25
2023-01-29T22:30:34.326Z,21.35
2023-01-29T22:33:02.077Z,22.32
2023-01-29T22:35:28.866Z,21.08
2023-01-29T22:37:55.612Z,21.90
2023-01-29T22:40:22.897Z,21.54
2023-01-29T22:42:49.735Z,21.23
2023-01-29T22:45:16.591Z,20.39
2023-01-29T22:47:43.514Z,21.16
2023-01-29T22:50:10.999Z,20.70
2023-01-29T22:52:43.000Z,21.27
2023-01-29T22:55:11.137Z,21.21
2023-01-29T22:57:38.997Z,21.41
2023-01-29T23:00:09.703Z,21.67
2023-01-29T23:02:37.368Z,21.85
2023-01-29T23:05:04.881Z,21.08
2023-01-29T23:07:31.640Z,21.06
2023-01-29T23:09:58.724Z,20.94
2023-01-29T23:12:25.424Z,20.96
2023-01-29T23:14:52.345Z,21.24
2023-01-29T23:17:19.301Z,21.00
2023-01-29T23:19:46.121Z,20.80
2023-01-29T23:22:13.497Z,20.40
2023-01-29T23:24:40.243Z,20.63
2023-01-29T23:27:25.182Z,21.27
2023-01-29T23:29:51.886Z,21.52
2023-01-29T23:32:20.282Z,22.80
2023-01-29T23:34:47.665Z,21.97
2023-01-29T23:37:14.547Z,21.68
2023-01-29T23:39:41.297Z,21.55
2023-01-29T23:42:08.339Z,21.48
2023-01-29T23:44:35.890Z,21.86
2023-01-29T23:47:02.969Z,21.15
2023-01-29T23:49:29.660Z,21.96
2023-01-29T23:51:56.357Z,21.58
2023-01-29T23:54:23.674Z,20.43
2023-01-29T23:56:50.419Z,21.48
2023-01-29T23:59:18.001Z,20.34
